Time;durP1;ratioP1;P1;durP2;ratioP2;P2;SDS_P1;SDS_P2;PMS_P1;PMS_P2;Temp;Humidity;BMP_temperature;BMP_pressure;BME280_temperature;BME280_humidity;BME280_pressure;Samples;Min_cycle;Max_cycle;Signal;HPM_P1;HPM_P2
2021/03/01 00:01:56;;;;;;;14.60;7.45;;;;;;;3.00;80.28;102071.03;5033328;28;20100;-68
2021/03/01 00:04:41;;;;;;;14.70;8.15;;;;;;;2.96;80.45;102079.09;5018202;28;20064;-68
2021/03/01 00:07:25;;;;;;;14.93;7.88;;;;;;;2.92;80.59;102075.69;5018288;28;20049;-68
2021/03/01 00:10:10;;;;;;;15.23;7.53;;;;;;;2.89;80.77;102075.81;5032808;28;20103;-67
2021/03/01 00:12:55;;;;;;;14.80;8.35;;;;;;;2.85;80.84;102078.59;5018100;28;20053;-69
2021/03/01 00:15:39;;;;;;;17.00;8.68;;;;;;;2.82;81.39;102066.38;5003924;28;20188;-68
2021/03/01 00:18:23;;;;;;;18.20;8.00;;;;;;;2.79;82.01;102070.88;5032849;28;20048;-67
2021/03/01 00:21:07;;;;;;;16.42;8.40;;;;;;;2.76;82.06;102073.63;5018181;28;20474;-68
2021/03/01 00:23:51;;;;;;;20.33;9.43;;;;;;;2.68;82.77;102070.38;5017860;28;20052;-68
2021/03/01 00:26:36;;;;;;;16.20;8.05;;;;;;;2.61;82.94;102075.00;5018077;28;20059;-69
2021/03/01 00:29:20;;;;;;;18.52;8.73;;;;;;;2.53;83.08;102082.28;5017793;28;20103;-68
2021/03/01 00:32:05;;;;;;;14.57;8.02;;;;;;;2.44;84.05;102066.78;5032962;28;20064;-68
2021/03/01 00:34:49;;;;;;;17.17;9.02;;;;;;;2.42;84.00;102070.41;5032565;28;20115;-68
2021/03/01 00:37:34;;;;;;;17.95;8.45;;;;;;;2.41;83.51;102076.56;5017810;28;20040;-68
2021/03/01 00:40:18;;;;;;;16.13;8.48;;;;;;;2.38;83.58;102076.66;5017659;28;20099;-68
2021/03/01 00:43:02;;;;;;;18.25;9.10;;;;;;;2.37;83.41;102074.94;5032905;28;20056;-68
2021/03/01 00:45:46;;;;;;;16.58;8.07;;;;;;;2.38;83.31;102081.91;5019563;28;20047;-68
2021/03/01 00:48:31;;;;;;;16.88;8.55;;;;;;;2.37;82.88;102074.94;5036337;28;20048;-68
2021/03/01 00:51:15;;;;;;;17.75;8.82;;;;;;;2.34;83.04;102075.03;5036665;28;20044;-68
2021/03/01 00:53:59;;;;;;;14.15;8.20;;;;;;;2.32;83.34;102071.59;5020979;28;20139;-68
2021/03/01 00:56:43;;;;;;;18.23;9.25;;;;;;;2.30;83.14;102070.81;5035888;28;20053;-68
2021/03/01 00:59:29;;;;;;;17.92;9.48;;;;;;;2.30;83.34;102068.16;5021574;28;20111;-68
2021/03/01 01:02:13;;;;;;;18.45;8.68;;;;;;;2.28;83.35;102059.44;5035894;28;20513;-68
2021/03/01 01:04:57;;;;;;;19.80;9.77;;;;;;;2.33;82.94;102059.28;5020884;28;20047;-68
2021/03/01 01:07:41;;;;;;;19.23;9.52;;;;;;;2.34;82.92;102069.78;5037640;28;20549;-69
2021/03/01 01:10:25;;;;;;;19.48;10.48;;;;;;;2.37;82.67;102071.47;5021044;28;20502;-68
2021/03/01 01:13:09;;;;;;;18.63;9.73;;;;;;;2.33;82.44;102062.81;5035836;28;20564;-68
2021/03/01 01:15:53;;;;;;;19.75;9.60;;;;;;;2.37;82.04;102067.03;5035613;28;20103;-68
2021/03/01 01:18:38;;;;;;;20.00;9.60;;;;;;;2.39;81.89;102070.47;5035964;28;20056;-68
2021/03/01 01:21:22;;;;;;;19.95;9.70;;;;;;;2.42;82.08;102070.41;5035697;28;20508;-68
2021/03/01 01:24:07;;;;;;;21.83;10.90;;;;;;;2.46;81.59;102061.47;5020650;28;20052;-68
2021/03/01 01:26:50;;;;;;;17.80;9.10;;;;;;;2.44;81.24;102066.78;5006935;28;20137;-68
2021/03/01 01:29:35;;;;;;;18.83;9.45;;;;;;;2.42;81.24;102060.72;5020637;28;20521;-68
2021/03/01 01:32:19;;;;;;;18.20;9.23;;;;;;;2.42;81.62;102065.97;5035665;28;20160;-68
2021/03/01 01:35:08;;;;;;;21.40;10.57;;;;;;;2.37;81.33;102064.41;5020543;28;20091;-68
2021/03/01 01:37:52;;;;;;;20.08;10.18;;;;;;;2.37;81.29;102061.78;5035503;28;20414;-68
2021/03/01 01:40:36;;;;;;;19.50;10.05;;;;;;;2.36;81.21;102067.97;5035242;28;20509;-68
2021/03/01 01:43:20;;;;;;;15.95;9.25;;;;;;;2.24;81.74;102068.34;5020311;28;20075;-68
2021/03/01 01:46:04;;;;;;;19.40;10.10;;;;;;;2.16;82.14;102065.09;5035390;28;20100;-67
2021/03/01 01:48:48;;;;;;;18.80;9.93;;;;;;;2.06;82.63;102058.41;5020262;28;20063;-68
2021/03/01 01:51:32;;;;;;;19.42;9.10;;;;;;;2.01;82.49;102060.31;5035328;28;20156;-68
2021/03/01 01:54:16;;;;;;;18.75;8.82;;;;;;;1.96;83.10;102054.31;5006114;28;20052;-68
2021/03/01 01:57:01;;;;;;;19.77;10.75;;;;;;;1.93;83.28;102058.81;5034224;28;20107;-67
2021/03/01 01:59:46;;;;;;;20.45;11.30;;;;;;;1.89;83.23;102055.44;5035131;28;20060;-68
2021/03/01 02:02:30;;;;;;;20.52;11.65;;;;;;;1.84;83.29;102046.81;5019839;28;20076;-68
2021/03/01 02:05:14;;;;;;;21.52;11.75;;;;;;;1.83;83.56;102047.72;5019967;28;20051;-68
2021/03/01 02:08:07;;;;;;;18.80;10.48;;;;;;;1.86;83.67;102045.00;5019741;28;20505;-68
2021/03/01 02:11:13;;;;;;;20.38;10.15;;;;;;;1.82;83.93;102037.25;5019961;28;20064;-68
2021/03/01 02:14:11;;;;;;;22.95;11.45;;;;;;;1.76;84.30;102038.28;5019698;28;20517;-68
2021/03/01 02:16:55;;;;;;;24.35;10.45;;;;;;;1.86;84.15;102041.53;5034791;28;20128;-68
2021/03/01 02:19:39;;;;;;;;;;;;;;;1.83;83.95;102034.59;5034873;28;20060;-68
2021/03/01 02:22:24;;;;;;;22.70;12.35;;;;;;;1.82;84.32;102029.34;5019522;28;20293;-68
2021/03/01 02:25:10;;;;;;;21.98;11.25;;;;;;;1.83;84.25;102029.31;5019488;28;20458;-68
2021/03/01 02:28:03;;;;;;;22.77;10.60;;;;;;;1.82;84.02;102024.97;5019645;28;20048;-68
2021/03/01 02:30:49;;;;;;;23.05;11.07;;;;;;;1.84;84.04;102031.03;5019350;28;20107;-68
2021/03/01 02:33:44;;;;;;;20.58;10.65;;;;;;;1.82;84.28;102022.34;5019222;28;20187;-68
2021/03/01 02:36:32;;;;;;;20.40;11.18;;;;;;;1.77;84.31;102024.25;5019355;28;20039;-68
2021/03/01 02:39:18;;;;;;;21.77;10.88;;;;;;;1.76;84.26;102024.31;5019336;28;20064;-68
2021/03/01 02:42:05;;;;;;;22.83;10.93;;;;;;;1.76;84.54;102026.94;5019427;28;20521;-68
2021/03/01 02:44:50;;;;;;;21.50;11.40;;;;;;;1.74;84.35;102028.72;5005184;28;20047;-68
2021/03/01 02:47:34;;;;;;;19.05;9.73;;;;;;;1.66;84.92;102030.75;5033947;28;20514;-68
2021/03/01 02:50:19;;;;;;;20.27;10.75;;;;;;;1.63;85.03;102022.94;5033926;28;20476;-68
2021/03/01 02:53:03;;;;;;;24.08;11.27;;;;;;;1.64;85.29;102028.16;5018937;28;20410;-68
2021/03/01 02:55:49;;;;;;;23.92;10.95;;;;;;;1.64;85.37;102029.94;5018948;28;20414;-68
2021/03/01 02:58:35;;;;;;;20.67;11.13;;;;;;;1.70;85.28;102019.22;5019100;28;20501;-67
2021/03/01 03:01:21;;;;;;;21.33;11.73;;;;;;;1.68;85.04;102027.16;5018793;28;20115;-68
2021/03/01 03:04:06;;;;;;;24.73;10.88;;;;;;;1.68;85.36;102029.78;5033734;28;20505;-69
2021/03/01 03:06:51;;;;;;;26.05;11.40;;;;;;;1.62;85.47;102029.09;5034141;28;20048;-68
2021/03/01 03:09:36;;;;;;;23.80;11.90;;;;;;;1.60;85.79;102021.28;5032938;28;20052;-68
2021/03/01 03:12:20;;;;;;;23.67;11.43;;;;;;;1.55;86.34;102012.66;5018866;28;20044;-68
2021/03/01 03:15:05;;;;;;;26.05;12.00;;;;;;;1.54;86.77;102010.94;5018549;28;20076;-68
2021/03/01 03:17:50;;;;;;;23.88;11.70;;;;;;;1.54;86.87;102021.44;5018819;28;20099;-68
2021/03/01 03:20:35;;;;;;;22.73;11.60;;;;;;;1.63;86.90;102023.81;5033988;28;20095;-68
2021/03/01 03:23:19;;;;;;;23.90;12.43;;;;;;;1.65;86.63;102024.63;5018629;28;20111;-68
2021/03/01 03:26:04;;;;;;;25.55;12.10;;;;;;;1.65;86.41;102022.00;5033356;28;20040;-67
2021/03/01 03:28:48;;;;;;;25.92;12.40;;;;;;;1.64;86.73;102012.38;5018679;28;20075;-68
2021/03/01 03:31:33;;;;;;;22.95;12.48;;;;;;;1.60;87.09;102021.28;5033505;28;20048;-68
2021/03/01 03:34:20;;;;;;;23.67;11.80;;;;;;;1.59;87.10;102014.31;5033449;28;20067;-68
2021/03/01 03:37:07;;;;;;;26.33;11.73;;;;;;;1.63;86.90;102018.56;5033447;28;20091;-68
2021/03/01 03:39:52;;;;;;;23.73;11.90;;;;;;;1.61;86.72;102020.38;5018303;28;20044;-68
2021/03/01 03:42:36;;;;;;;25.27;12.63;;;;;;;1.63;86.75;102025.56;5004865;28;20079;-69
2021/03/01 03:45:22;;;;;;;30.13;12.80;;;;;;;1.66;86.67;102023.72;5018694;28;20052;-68
2021/03/01 03:48:06;;;;;;;32.13;12.52;;;;;;;1.58;87.13;102024.84;5018479;28;20497;-68
2021/03/01 03:50:53;;;;;;;26.38;12.20;;;;;;;1.52;87.26;102023.28;5033367;28;20048;-68
2021/03/01 03:53:41;;;;;;;22.25;11.70;;;;;;;1.49;87.00;102018.13;5018017;28;20552;-68
2021/03/01 03:56:27;;;;;;;23.33;11.70;;;;;;;1.49;87.75;102015.50;5018214;28;20095;-68
2021/03/01 03:59:11;;;;;;;26.98;11.88;;;;;;;1.46;87.96;102012.09;5018068;28;20056;-68
2021/03/01 04:01:56;;;;;;;24.40;11.70;;;;;;;1.43;88.07;102023.53;5032961;28;20461;-67
2021/03/01 04:04:41;;;;;;;22.55;11.32;;;;;;;1.46;87.86;102022.59;5017948;28;20095;-68
2021/03/01 04:07:25;;;;;;;22.13;11.65;;;;;;;1.42;87.74;102021.81;5018178;28;20120;-68
2021/03/01 04:10:09;;;;;;;24.58;11.82;;;;;;;1.39;87.98;102019.28;5033185;28;20418;-67
2021/03/01 04:12:54;;;;;;;24.38;11.73;;;;;;;1.38;88.17;102032.47;5032760;28;20140;-68
2021/03/01 04:15:45;;;;;;;23.40;11.77;;;;;;;1.35;87.95;102020.25;5033083;28;20052;-68
2021/03/01 04:18:33;;;;;;;22.95;11.18;;;;;;;1.37;87.94;102023.69;5018093;28;20410;-68
2021/03/01 04:21:19;;;;;;;22.60;11.73;;;;;;;1.36;88.13;102027.25;5020948;28;20056;-68
2021/03/01 04:24:04;;;;;;;26.45;12.15;;;;;;;1.39;87.76;102026.28;5036639;28;20052;-68
2021/03/01 04:26:48;;;;;;;24.05;11.60;;;;;;;1.38;87.78;102021.94;5036660;28;20048;-68
2021/03/01 04:29:32;;;;;;;27.80;12.25;;;;;;;1.37;87.91;102030.75;5021900;28;20052;-68
2021/03/01 04:32:17;;;;;;;24.45;12.20;;;;;;;1.34;87.86;102015.06;5036558;28;20126;-68
2021/03/01 04:35:03;;;;;;;25.33;11.43;;;;;;;1.30;88.38;102027.44;5021662;28;20597;-68
2021/03/01 04:37:48;;;;;;;24.27;12.38;;;;;;;1.26;88.51;102019.69;5021396;28;20072;-68
2021/03/01 04:40:32;;;;;;;24.45;12.10;;;;;;;1.21;88.45;102013.69;5021393;28;20521;-68
2021/03/01 04:43:16;;;;;;;25.02;11.88;;;;;;;1.22;88.67;102015.41;5021817;28;20132;-68
2021/03/01 04:46:01;;;;;;;23.35;12.23;;;;;;;1.22;88.24;102012.78;5021579;28;20048;-68
2021/03/01 04:48:46;;;;;;;23.33;11.50;;;;;;;1.20;88.64;102015.47;5021241;28;20060;-68
2021/03/01 04:51:31;;;;;;;23.20;11.43;;;;;;;1.18;88.51;102011.16;5021517;28;20080;-68
2021/03/01 04:54:16;;;;;;;29.92;12.98;;;;;;;1.13;88.98;102013.91;5021071;28;20056;-68
2021/03/01 04:57:00;;;;;;;26.48;12.52;;;;;;;1.12;88.86;102014.81;5035912;28;20107;-68
2021/03/01 04:59:46;;;;;;;25.90;11.77;;;;;;;1.06;89.26;102011.50;5021047;28;20052;-68
2021/03/01 05:02:31;;;;;;;23.83;10.93;;;;;;;1.08;89.17;102010.56;5020936;28;20044;-68
2021/03/01 05:05:15;;;;;;;25.42;12.18;;;;;;;1.02;89.46;102015.09;5036304;28;20048;-68
2021/03/01 05:08:04;;;;;;;26.58;11.70;;;;;;;0.97;89.81;102012.63;5021485;28;20052;-68
2021/03/01 05:10:49;;;;;;;25.98;11.85;;;;;;;0.95;89.71;102008.31;5021039;28;20052;-68
2021/03/01 05:13:34;;;;;;;29.52;11.40;;;;;;;0.88;90.08;102007.63;5035647;28;20080;-68
2021/03/01 05:16:18;;;;;;;23.15;10.77;;;;;;;0.95;89.62;102003.06;5020982;28;20510;-68
2021/03/01 05:19:04;;;;;;;27.38;11.45;;;;;;;0.90;90.05;102010.19;5035896;28;20190;-67
2021/03/01 05:21:47;;;;;;;20.52;11.40;;;;;;;0.94;90.08;102014.47;5006912;28;20049;-68
2021/03/01 05:24:32;;;;;;;24.70;11.77;;;;;;;0.87;90.49;102008.53;5035489;28;20052;-68
2021/03/01 05:27:16;;;;;;;27.67;11.80;;;;;;;0.86;90.96;102011.19;5020539;28;20056;-68
2021/03/01 05:30:03;;;;;;;32.20;11.77;;;;;;;0.87;91.13;102008.53;5020479;28;20095;-68
2021/03/01 05:32:48;;;;;;;23.45;11.25;;;;;;;0.91;90.93;102018.03;5019608;28;20160;-68
2021/03/01 05:35:32;;;;;;;27.75;11.88;;;;;;;0.93;91.25;102021.47;5020490;28;20526;-68
2021/03/01 05:38:16;;;;;;;28.02;11.65;;;;;;;0.92;91.19;102014.50;5020744;28;20076;-67
2021/03/01 05:41:02;;;;;;;22.02;10.80;;;;;;;0.90;91.52;102016.31;5035487;28;20111;-68
2021/03/01 05:43:50;;;;;;;22.27;11.43;;;;;;;0.92;91.29;102019.75;5035403;28;20045;-68
2021/03/01 05:46:35;;;;;;;26.20;12.07;;;;;;;0.94;91.59;102023.19;5020578;28;20568;-68
2021/03/01 05:49:20;;;;;;;25.25;11.23;;;;;;;0.97;91.54;102027.50;5020339;28;20052;-68
2021/03/01 05:52:05;;;;;;;23.35;11.93;;;;;;;0.96;91.56;102024.00;5020543;28;20115;-68
2021/03/01 05:54:50;;;;;;;24.30;11.73;;;;;;;0.94;91.73;102023.19;5019804;28;20114;-68
2021/03/01 05:57:35;;;;;;;25.10;12.35;;;;;;;1.00;91.52;102028.28;5035161;28;20040;-68
2021/03/01 06:00:19;;;;;;;29.55;13.50;;;;;;;0.98;91.37;102035.34;5019832;28;20512;-68
2021/03/01 06:03:03;;;;;;;25.92;12.32;;;;;;;0.97;91.72;102033.63;5034963;28;20052;-68
2021/03/01 06:05:47;;;;;;;27.65;13.02;;;;;;;0.96;91.85;102031.03;5019632;28;20091;-68
2021/03/01 06:08:32;;;;;;;32.75;12.93;;;;;;;1.01;91.96;102030.00;5019952;28;20052;-68
2021/03/01 06:11:16;;;;;;;29.63;13.32;;;;;;;0.96;91.94;102034.50;5034939;28;20052;-68
2021/03/01 06:14:04;;;;;;;27.52;12.63;;;;;;;0.97;91.93;102035.38;5019624;28;20472;-68
2021/03/01 06:17:17;;;;;;;25.30;11.43;;;;;;;0.97;92.23;102036.25;5019666;28;20048;-68
2021/03/01 06:20:02;;;;;;;26.50;12.55;;;;;;;0.96;92.29;102042.38;5019800;28;20075;-68
2021/03/01 06:22:46;;;;;;;28.67;13.35;;;;;;;0.98;92.39;102047.59;5034584;28;20406;-68
2021/03/01 06:25:31;;;;;;;29.25;13.40;;;;;;;0.97;92.30;102035.38;5034376;28;20506;-70
2021/03/01 06:28:15;;;;;;;26.80;13.18;;;;;;;1.02;92.11;102050.13;5019436;28;20414;-70
2021/03/01 06:30:59;;;;;;;34.20;13.77;;;;;;;1.05;92.09;102052.66;5034654;28;20111;-69
2021/03/01 06:33:43;;;;;;;28.23;13.05;;;;;;;1.11;91.55;102057.75;5019446;28;20088;-70
2021/03/01 06:36:52;;;;;;;28.98;11.10;;;;;;;1.16;91.71;102052.38;5034191;28;20087;-70
2021/03/01 06:39:45;;;;;;;25.60;11.80;;;;;;;1.22;91.52;102054.81;5034050;28;20044;-69
2021/03/01 06:42:32;;;;;;;26.25;12.70;;;;;;;1.25;91.70;102058.22;5033933;28;20048;-69
2021/03/01 06:45:16;;;;;;;26.20;12.50;;;;;;;1.32;91.23;102057.16;5034214;28;20091;-69
2021/03/01 06:48:00;;;;;;;27.88;13.10;;;;;;;1.33;91.41;102053.63;5034076;28;20044;-69
2021/03/01 06:50:53;;;;;;;27.77;12.65;;;;;;;1.43;90.97;102060.31;5018914;28;20095;-69
2021/03/01 06:53:38;;;;;;;27.77;12.53;;;;;;;1.47;90.70;102064.56;5018920;28;20064;-69
2021/03/01 06:56:22;;;;;;;27.20;12.98;;;;;;;1.57;90.67;102063.41;5005067;28;20378;-69
2021/03/01 06:59:14;;;;;;;25.77;11.73;;;;;;;1.66;89.91;102068.41;5019222;28;20452;-69
2021/03/01 07:01:58;;;;;;;29.20;13.63;;;;;;;1.75;89.85;102068.13;5018768;28;20484;-67
2021/03/01 07:04:55;;;;;;;29.77;13.90;;;;;;;1.86;89.29;102073.09;5018630;28;20132;-69
2021/03/01 07:07:39;;;;;;;25.92;13.95;;;;;;;1.94;89.19;102071.06;5018657;28;20043;-69
2021/03/01 07:10:35;;;;;;;24.05;12.32;;;;;;;2.05;88.94;102069.00;5019180;28;20130;-69
2021/03/01 07:13:30;;;;;;;30.67;12.52;;;;;;;2.17;88.17;102074.72;5033494;28;20052;-69
2021/03/01 07:16:15;;;;;;;24.60;11.57;;;;;;;2.26;87.47;102073.56;5018508;28;20561;-69
2021/03/01 07:18:59;;;;;;;24.52;12.15;;;;;;;2.41;87.32;102083.59;5018754;28;20052;-69
2021/03/01 07:21:46;;;;;;;32.95;12.68;;;;;;;2.47;86.39;102077.25;5033309;28;20051;-69
2021/03/01 07:24:31;;;;;;;56.85;25.38;;;;;;;2.60;86.41;102075.03;5033321;28;20055;-69
2021/03/01 07:27:16;;;;;;;31.10;13.55;;;;;;;2.71;85.28;102073.78;5018685;28;20195;-68
2021/03/01 07:30:01;;;;;;;29.85;13.73;;;;;;;2.83;84.57;102076.00;5033525;28;20064;-69
2021/03/01 07:32:46;;;;;;;26.70;12.80;;;;;;;2.96;84.07;102065.91;5018443;28;20084;-69
2021/03/01 07:35:30;;;;;;;24.17;13.18;;;;;;;3.05;83.60;102066.44;5033458;28;20496;-69
2021/03/01 07:38:15;;;;;;;25.70;13.13;;;;;;;3.16;82.88;102069.53;5033407;28;20072;-69
2021/03/01 07:41:01;;;;;;;32.03;14.07;;;;;;;3.21;82.94;102066.75;5033367;28;20068;-69
2021/03/01 07:43:45;;;;;;;22.65;11.25;;;;;;;3.32;82.18;102075.13;5018083;28;20053;-68
2021/03/01 07:46:34;;;;;;;21.52;10.57;;;;;;;3.45;81.43;102065.88;5004557;28;20076;-69
2021/03/01 07:49:45;;;;;;;25.40;11.63;;;;;;;3.56;80.80;102071.63;5004355;28;20099;-69
2021/03/01 07:52:30;;;;;;;103.65;50.35;;;;;;;3.69;80.30;102070.25;5033051;28;20060;-69
2021/03/01 07:55:22;;;;;;;77.40;36.90;;;;;;;3.81;78.28;102069.78;5034296;28;20505;-69
2021/03/01 07:58:06;;;;;;;152.45;66.00;;;;;;;3.91;77.92;102069.38;5037183;28;20121;-69
2021/03/01 08:00:50;;;;;;;82.80;42.75;;;;;;;3.99;77.93;102069.06;5037355;28;20082;-69
2021/03/01 08:03:36;;;;;;;29.05;16.15;;;;;;;4.10;77.39;102078.31;5022237;28;20103;-69
2021/03/01 08:06:20;;;;;;;22.55;12.35;;;;;;;4.20;76.50;102073.50;5036975;28;20103;-69
2021/03/01 08:09:05;;;;;;;26.27;13.88;;;;;;;4.29;76.23;102076.63;5008299;28;20099;-69
2021/03/01 08:11:48;;;;;;;22.35;12.75;;;;;;;4.35;76.78;102078.19;5037213;28;20411;-69
2021/03/01 08:14:50;;;;;;;27.60;14.45;;;;;;;4.41;76.32;102081.44;5021885;28;20056;-69
2021/03/01 08:17:41;;;;;;;25.38;13.85;;;;;;;4.54;75.87;102079.13;5037022;28;20099;-69
2021/03/01 08:20:30;;;;;;;29.48;14.40;;;;;;;4.58;75.23;102071.03;5037074;28;20048;-69
2021/03/01 08:23:15;;;;;;;32.42;16.85;;;;;;;4.74;75.55;102071.25;5021796;28;20048;-68
2021/03/01 08:25:59;;;;;;;34.58;18.10;;;;;;;4.80;74.65;102071.00;5021917;28;20051;-69
2021/03/01 08:28:43;;;;;;;29.80;17.17;;;;;;;4.93;73.49;102068.63;5021763;28;20048;-69
2021/03/01 08:31:32;;;;;;;29.42;18.17;;;;;;;4.99;73.49;102068.38;5036682;28;20048;-69
2021/03/01 08:34:24;;;;;;;56.30;35.10;;;;;;;5.08;73.75;102068.00;5036523;28;20057;-69
2021/03/01 08:37:09;;;;;;;28.35;15.25;;;;;;;5.21;72.82;102069.16;5036584;28;20053;-68
2021/03/01 08:40:00;;;;;;;24.83;13.05;;;;;;;5.37;71.98;102072.00;5036343;28;20142;-69
2021/03/01 08:42:55;;;;;;;25.15;12.68;;;;;;;5.46;70.88;102067.13;5022035;28;20056;-69
2021/03/01 08:45:44;;;;;;;27.05;14.32;;;;;;;5.56;70.75;102060.50;5007701;28;20044;-69
2021/03/01 08:48:28;;;;;;;23.65;13.73;;;;;;;5.65;70.34;102061.91;5036305;28;20525;-68
2021/03/01 08:51:13;;;;;;;24.48;12.75;;;;;;;5.69;69.66;102059.03;5021564;28;20079;-69
2021/03/01 08:53:58;;;;;;;23.77;12.07;;;;;;;5.79;69.46;102055.06;5036627;28;20059;-69
2021/03/01 08:56:42;;;;;;;26.13;14.70;;;;;;;5.96;69.61;102055.13;5036132;28;20049;-69
2021/03/01 08:59:27;;;;;;;27.45;13.68;;;;;;;6.04;69.59;102052.97;5021496;28;20540;-69
2021/03/01 09:02:21;;;;;;;22.50;12.55;;;;;;;6.19;68.24;102051.38;5036275;28;20099;-69
2021/03/01 09:05:06;;;;;;;27.25;12.68;;;;;;;6.38;67.65;102044.28;5021385;28;20132;-69
2021/03/01 09:07:51;;;;;;;25.40;12.75;;;;;;;6.57;67.25;102045.09;5036152;28;20449;-69
2021/03/01 09:10:44;;;;;;;;;;;;;;;6.75;66.95;102038.88;5021640;28;20059;-69
2021/03/01 09:13:29;;;;;;;24.85;12.88;;;;;;;6.98;65.91;102033.25;5007240;28;19920;-68
2021/03/01 09:16:16;;;;;;;35.15;18.77;;;;;;;7.24;64.85;102036.25;5020781;28;20048;-69
2021/03/01 09:19:05;;;;;;;33.78;17.08;;;;;;;7.53;64.84;102039.06;5021016;28;20168;-69
2021/03/01 09:21:54;;;;;;;28.83;12.55;;;;;;;7.95;62.13;102042.03;5020817;28;20048;-69
2021/03/01 09:24:38;;;;;;;26.73;14.98;;;;;;;8.31;61.05;102045.31;5020792;28;20398;-69
2021/03/01 09:27:32;;;;;;;30.55;14.77;;;;;;;9.09;58.40;102039.81;5035752;28;20095;-69
2021/03/01 09:30:19;;;;;;;31.27;17.58;;;;;;;10.00;55.88;102046.47;5006756;28;20128;-69
2021/03/01 09:33:06;;;;;;;107.38;58.42;;;;;;;10.00;55.88;102046.47;5035262;28;20057;-67
2021/03/01 09:35:50;;;;;;;100.30;52.40;;;;;;;10.00;55.88;102046.47;5020380;28;20068;-67
2021/03/01 09:38:35;;;;;;;53.13;29.20;;;;;;;18.51;34.50;102015.66;5035411;28;20509;-68
2021/03/01 09:41:19;;;;;;;37.00;22.15;;;;;;;20.93;29.78;102006.88;5006859;28;20179;-68
2021/03/01 09:44:05;;;;;;;86.30;47.67;;;;;;;22.41;27.75;102005.16;5020194;28;20577;-67
2021/03/01 09:46:50;;;;;;;327.98;198.77;;;;;;;23.23;26.17;102000.63;5020401;28;20133;-68
2021/03/01 09:49:35;;;;;;;68.82;41.00;;;;;;;24.96;23.79;101993.25;5035046;28;20112;-68
2021/03/01 09:52:20;;;;;;;123.63;76.28;;;;;;;25.54;22.29;101992.94;5035310;28;20056;-68
2021/03/01 09:55:04;;;;;;;110.22;72.43;;;;;;;26.87;20.94;101985.69;5034594;28;20056;-68
2021/03/01 09:57:50;;;;;;;35.35;25.15;;;;;;;27.27;20.73;101984.69;5035176;28;20407;-68
2021/03/01 10:00:35;;;;;;;59.80;43.80;;;;;;;28.06;20.06;101976.13;5006472;28;20045;-68
2021/03/01 10:03:19;;;;;;;80.13;59.10;;;;;;;28.84;18.72;101977.59;5019916;28;20056;-68
2021/03/01 10:06:02;;;;;;;;;;;;;;;28.72;18.51;101976.59;5020141;28;20119;-68
2021/03/01 10:08:46;;;;;;;18.13;15.38;;;;;;;29.43;17.71;101973.28;5006203;28;19963;-68
2021/03/01 10:11:31;;;;;;;17.48;13.07;;;;;;;28.84;17.87;101972.94;5019904;28;20418;-68
2021/03/01 10:14:15;;;;;;;17.75;12.30;;;;;;;29.36;17.93;101978.00;5019868;28;20053;-68
2021/03/01 10:17:16;;;;;;;17.67;13.98;;;;;;;29.22;17.63;101965.47;5019803;28;20048;-68
2021/03/01 10:20:09;;;;;;;17.70;12.70;;;;;;;29.63;17.15;101962.97;5034756;28;20132;-68
2021/03/01 10:23:06;;;;;;;20.80;17.10;;;;;;;30.20;16.92;101965.25;5019404;28;20068;-68
2021/03/01 10:25:50;;;;;;;23.13;20.60;;;;;;;30.24;16.29;101960.97;5034640;28;20059;-68
2021/03/01 10:28:36;;;;;;;33.17;28.85;;;;;;;30.17;16.31;101960.22;5034599;28;20099;-68
2021/03/01 10:31:39;;;;;;;17.38;11.52;;;;;;;29.86;16.17;101963.13;5034206;28;20060;-68
2021/03/01 10:34:38;;;;;;;22.33;16.03;;;;;;;28.97;16.99;101956.38;5019290;28;20052;-68
2021/03/01 10:37:23;;;;;;;17.70;13.90;;;;;;;29.91;16.49;101952.28;5034026;28;20302;-67
2021/03/01 10:40:08;;;;;;;14.82;13.18;;;;;;;29.75;16.41;101950.13;5019261;28;20520;-68
2021/03/01 10:42:52;;;;;;;19.25;16.00;;;;;;;30.46;16.22;101942.88;5034252;28;20555;-68
2021/03/01 10:45:44;;;;;;;15.63;11.13;;;;;;;31.12;15.54;101943.50;5005502;28;20048;-68
2021/03/01 10:48:28;;;;;;;13.07;11.13;;;;;;;30.53;15.47;101944.44;5019268;28;20068;-67
2021/03/01 10:51:11;;;;;;;16.42;11.82;;;;;;;30.65;15.46;101936.25;5019285;28;20052;-68
2021/03/01 10:53:56;;;;;;;12.30;9.88;;;;;;;31.36;15.20;101931.44;5004856;28;20130;-67
2021/03/01 10:56:40;;;;;;;12.82;9.68;;;;;;;31.31;15.16;101932.19;5004980;28;20060;-68
2021/03/01 10:59:24;;;;;;;16.60;13.20;;;;;;;30.95;15.26;101931.53;5018817;28;20048;-67
2021/03/01 11:02:08;;;;;;;16.27;13.32;;;;;;;31.29;14.83;101933.47;5034024;28;20056;-68
2021/03/01 11:04:52;;;;;;;12.43;10.82;;;;;;;31.85;14.41;101922.66;5018870;28;20084;-68
2021/03/01 11:07:36;;;;;;;12.82;10.65;;;;;;;31.07;14.57;101932.38;5018658;28;20083;-68
2021/03/01 11:10:20;;;;;;;13.63;9.25;;;;;;;31.39;14.11;101928.22;5005022;28;20048;-68
2021/03/01 11:13:04;;;;;;;12.10;9.95;;;;;;;32.09;14.13;101929.78;5019113;28;20060;-68
2021/03/01 11:15:48;;;;;;;13.05;10.65;;;;;;;32.63;13.85;101910.69;5018699;28;20117;-68
2021/03/01 11:18:32;;;;;;;12.50;9.85;;;;;;;32.70;13.55;101921.56;5018429;28;20052;-68
2021/03/01 11:21:17;;;;;;;11.70;9.90;;;;;;;32.47;13.45;101918.97;5033449;28;20052;-68
2021/03/01 11:24:02;;;;;;;14.57;9.70;;;;;;;31.90;13.70;101897.91;5033367;28;20052;-68
2021/03/01 11:26:46;;;;;;;10.98;8.85;;;;;;;31.63;14.39;101914.16;5004483;28;20048;-68
2021/03/01 11:29:30;;;;;;;11.95;9.07;;;;;;;32.02;13.76;101907.00;5017974;28;20520;-68
2021/03/01 11:32:14;;;;;;;13.27;9.20;;;;;;;31.94;13.54;101905.47;5018465;28;20053;-68
2021/03/01 11:34:58;;;;;;;53.15;39.80;;;;;;;32.18;14.00;101900.69;5033449;28;20064;-68
2021/03/01 11:37:42;;;;;;;50.13;40.80;;;;;;;32.71;13.76;101896.50;5033365;28;20514;-68
2021/03/01 11:40:26;;;;;;;36.53;32.72;;;;;;;33.35;13.19;101899.47;5033382;28;20048;-68
2021/03/01 11:43:10;;;;;;;35.35;31.55;;;;;;;33.27;12.75;101891.63;5018057;28;20110;-68
2021/03/01 11:45:55;;;;;;;29.02;25.88;;;;;;;32.37;13.31;101900.25;5033098;28;20052;-68
2021/03/01 11:48:39;;;;;;;19.23;15.27;;;;;;;32.42;13.25;101882.97;5004187;28;20111;-68
2021/03/01 11:51:23;;;;;;;18.27;15.18;;;;;;;32.68;13.28;101885.09;5018310;28;20049;-68
2021/03/01 11:54:07;;;;;;;14.45;12.93;;;;;;;33.35;12.85;101880.13;5017939;28;20052;-68
2021/03/01 11:56:53;;;;;;;17.88;13.10;;;;;;;32.74;12.78;101864.75;5032873;28;20052;-68
2021/03/01 11:59:37;;;;;;;15.93;13.27;;;;;;;32.62;13.33;101875.88;5033202;28;20133;-68
2021/03/01 12:02:22;;;;;;;16.27;13.68;;;;;;;33.25;12.77;101868.91;5017980;28;20102;-68
2021/03/01 12:05:06;;;;;;;16.00;13.52;;;;;;;32.62;12.71;101862.06;5032847;28;20509;-68
2021/03/01 12:07:51;;;;;;;13.10;11.30;;;;;;;32.92;12.96;101853.44;5033044;28;20052;-68
2021/03/01 12:10:36;;;;;;;12.60;10.77;;;;;;;32.88;12.63;101857.81;5018216;28;20080;-67
2021/03/01 12:13:20;;;;;;;13.13;11.18;;;;;;;33.72;12.26;101845.25;5032820;28;20052;-67
2021/03/01 12:16:04;;;;;;;13.43;11.05;;;;;;;33.06;12.69;101848.13;5033209;28;20048;-68
2021/03/01 12:18:48;;;;;;;11.65;10.38;;;;;;;32.78;13.04;101843.84;5017834;28;20052;-68
2021/03/01 12:21:32;;;;;;;17.20;11.57;;;;;;;31.63;13.84;101849.88;5032740;28;20068;-68
2021/03/01 12:24:17;;;;;;;15.18;11.77;;;;;;;31.46;13.80;101837.97;5018006;28;20049;-68
2021/03/01 12:27:01;;;;;;;14.02;10.95;;;;;;;31.41;13.54;101835.06;5032887;28;20557;-67
2021/03/01 12:29:46;;;;;;;11.13;9.13;;;;;;;32.51;13.55;101831.75;5032686;28;20172;-68
2021/03/01 12:32:31;;;;;;;12.85;9.95;;;;;;;31.26;13.50;101829.25;5017740;28;20048;-67
2021/03/01 12:35:15;;;;;;;11.63;9.85;;;;;;;31.42;13.81;101828.47;5032883;28;20053;-68
2021/03/01 12:37:59;;;;;;;11.90;9.40;;;;;;;31.33;13.95;101827.19;5017917;28;20045;-68
2021/03/01 12:40:44;;;;;;;14.02;10.30;;;;;;;31.13;13.71;101824.78;5017891;28;20524;-68
2021/03/01 12:43:28;;;;;;;14.80;12.25;;;;;;;31.40;13.96;101816.88;5036569;28;20110;-68